Time;durP1;ratioP1;P1;durP2;ratioP2;P2;SDS_P1;SDS_P2;PMS_P1;PMS_P2;Temp;Humidity;BMP_temperature;BMP_pressure;BME280_temperature;BME280_humidity;BME280_pressure;Samples;Min_cycle;Max_cycle;Signal;HPM_P1;HPM_P2
2022/01/09 13:50:03;;;;;;;37.67;27.20;;;1.60;81.30;;;;;;5080944;27;1433563;-69
2022/01/09 13:52:33;;;;;;;34.33;29.67;;;1.60;83.10;;;;;;5115361;28;20032;-70
2022/01/09 13:55:19;;;;;;;32.33;27.55;;;1.80;84.30;;;;;;5118557;28;20423;-67
2022/01/09 13:57:53;;;;;;;36.20;32.93;;;2.00;85.00;;;;;;5119946;28;20465;-70
2022/01/09 14:00:24;;;;;;;32.58;29.20;;;2.30;84.90;;;;;;5120062;28;20015;-70
2022/01/09 14:02:50;;;;;;;36.55;30.42;;;2.40;84.80;;;;;;5106342;28;20019;-71
2022/01/09 14:05:20;;;;;;;31.33;28.13;;;2.60;84.90;;;;;;5118704;28;20024;-68
2022/01/09 14:07:57;;;;;;;33.03;29.77;;;2.70;84.80;;;;;;5101171;28;20687;-71
2022/01/09 14:10:37;;;;;;;30.25;26.52;;;3.00;84.70;;;;;;5108701;28;20031;-71
2022/01/09 14:13:23;;;;;;;33.03;27.58;;;3.20;84.50;;;;;;5115770;28;20028;-69
2022/01/09 14:15:50;;;;;;;;;;;3.30;84.10;;;;;;5119399;28;20027;-69
2022/01/09 14:18:26;;;;;;;;;;;3.40;83.90;;;;;;5117529;28;20034;-69
2022/01/09 14:21:04;;;;;;;33.10;29.70;;;3.50;83.50;;;;;;5121286;27;20270;-68
2022/01/09 14:23:39;;;;;;;33.30;27.35;;;3.60;83.20;;;;;;5111890;28;20030;-68
2022/01/09 14:26:14;;;;;;;34.40;27.63;;;3.50;83.00;;;;;;5114692;28;20823;-72
2022/01/09 14:28:41;;;;;;;35.85;30.40;;;3.40;83.10;;;;;;5105363;28;20035;-70
2022/01/09 14:31:10;;;;;;;39.10;30.75;;;3.50;83.40;;;;;;5116832;28;20043;-68
2022/01/09 14:33:39;;;;;;;34.17;30.55;;;3.60;83.40;;;;;;5119074;28;20072;-68
2022/01/09 14:36:12;;;;;;;41.25;28.88;;;3.70;83.20;;;;;;5119295;28;20023;-67
2022/01/09 14:38:51;;;;;;;37.60;30.17;;;3.80;83.20;;;;;;5116908;28;20081;-69
2022/01/09 14:41:18;;;;;;;37.60;26.25;;;3.90;83.10;;;;;;5111027;28;20023;-70
2022/01/09 14:43:43;;;;;;;44.70;31.73;;;3.90;82.90;;;;;;5107426;28;20058;-70
2022/01/09 14:46:09;;;;;;;32.90;29.75;;;3.80;82.70;;;;;;5108520;28;20138;-71
2022/01/09 14:48:39;;;;;;;37.92;30.70;;;3.90;82.80;;;;;;5104455;28;20052;-70
2022/01/09 14:51:13;;;;;;;38.60;28.77;;;3.90;82.80;;;;;;5117423;28;20023;-69
2022/01/09 14:53:41;;;;;;;33.25;29.48;;;3.90;82.70;;;;;;5116616;28;20028;-69
2022/01/09 14:56:07;;;;;;;35.60;28.85;;;3.90;82.60;;;;;;5119826;28;20031;-69
2022/01/09 14:58:32;;;;;;;44.58;31.17;;;3.90;82.70;;;;;;5121100;28;20101;-70
2022/01/09 15:00:58;;;;;;;34.10;30.05;;;3.80;82.70;;;;;;5107107;28;20016;-70
2022/01/09 15:03:24;;;;;;;34.17;28.17;;;3.90;82.90;;;;;;5095161;28;20034;-69
2022/01/09 15:05:52;;;;;;;33.15;27.80;;;4.00;82.90;;;;;;5095861;28;20028;-71
2022/01/09 15:08:20;;;;;;;34.05;28.27;;;4.00;82.60;;;;;;5099658;28;20031;-73
2022/01/09 15:10:46;;;;;;;35.35;28.50;;;4.00;82.60;;;;;;5108714;28;20131;-69
2022/01/09 15:13:14;;;;;;;34.90;30.73;;;4.00;82.70;;;;;;5107462;28;20130;-71
2022/01/09 15:15:41;;;;;;;30.50;27.38;;;4.10;82.60;;;;;;5109030;28;20023;-69
2022/01/09 15:18:08;;;;;;;40.08;32.70;;;4.10;82.60;;;;;;5107481;28;20031;-69
2022/01/09 15:20:34;;;;;;;42.00;35.38;;;4.20;82.60;;;;;;5107556;28;20449;-69
2022/01/09 15:23:04;;;;;;;69.45;49.97;;;4.20;82.50;;;;;;5101532;28;20027;-68
2022/01/09 15:25:42;;;;;;;58.35;41.80;;;4.20;82.50;;;;;;5102014;28;20026;-69
2022/01/09 15:28:09;;;;;;;34.83;30.92;;;4.20;82.60;;;;;;5089662;28;20032;-71
2022/01/09 15:30:36;;;;;;;70.18;51.25;;;4.20;82.50;;;;;;5097933;28;20485;-69
2022/01/09 15:33:05;;;;;;;46.90;36.65;;;4.30;82.70;;;;;;5102054;28;20038;-73
2022/01/09 15:35:31;;;;;;;50.20;38.40;;;4.30;82.70;;;;;;5102659;28;20031;-69
2022/01/09 15:37:57;;;;;;;40.38;36.28;;;4.40;82.70;;;;;;5100853;28;20397;-73
2022/01/09 15:40:23;;;;;;;34.30;30.80;;;4.40;82.60;;;;;;5100054;28;20016;-70
2022/01/09 15:42:50;;;;;;;34.15;31.08;;;4.40;82.70;;;;;;5094274;28;20020;-70
2022/01/09 15:45:16;;;;;;;37.92;32.47;;;4.40;82.60;;;;;;5099140;28;20040;-68
2022/01/09 15:47:41;;;;;;;50.08;41.72;;;4.40;82.50;;;;;;5087848;28;20028;-68
2022/01/09 15:50:08;;;;;;;37.95;33.92;;;4.50;82.50;;;;;;5100930;28;20052;-68
2022/01/09 15:52:34;;;;;;;40.10;36.17;;;4.50;82.50;;;;;;5106862;28;20492;-69
2022/01/09 15:54:59;;;;;;;51.08;45.00;;;4.50;82.40;;;;;;5104686;28;20020;-69
2022/01/09 15:57:29;;;;;;;50.45;40.83;;;4.50;82.30;;;;;;5103424;28;20020;-69
2022/01/09 15:59:55;;;;;;;40.75;35.92;;;4.50;82.30;;;;;;5099917;28;20104;-70
2022/01/09 16:02:21;;;;;;;35.50;31.83;;;4.60;82.20;;;;;;5094786;28;20107;-70
2022/01/09 16:04:47;;;;;;;36.17;32.72;;;4.60;82.30;;;;;;5103278;28;20027;-69
2022/01/09 16:07:13;;;;;;;33.88;30.63;;;4.60;82.20;;;;;;5091175;28;20071;-71
2022/01/09 16:09:40;;;;;;;35.47;31.17;;;4.60;82.10;;;;;;5094611;28;20482;-71
2022/01/09 16:12:11;;;;;;;36.88;32.05;;;4.60;82.10;;;;;;5101185;28;20028;-68
2022/01/09 16:14:38;;;;;;;36.00;29.20;;;4.60;81.90;;;;;;5097350;28;20028;-71
2022/01/09 16:17:05;;;;;;;38.47;34.35;;;4.60;81.90;;;;;;5104359;28;20024;-72
2022/01/09 16:19:30;;;;;;;39.42;35.20;;;4.60;81.90;;;;;;5114322;28;20023;-74
2022/01/09 16:21:57;;;;;;;73.25;55.97;;;4.60;81.90;;;;;;5109046;28;20552;-73
2022/01/09 16:24:23;;;;;;;57.58;48.45;;;4.60;81.90;;;;;;5112496;28;20032;-69
2022/01/09 16:26:48;;;;;;;56.00;47.25;;;4.60;81.80;;;;;;5101641;28;20544;-69
2022/01/09 16:29:14;;;;;;;45.13;37.97;;;4.60;81.70;;;;;;5103447;28;20043;-71
2022/01/09 16:31:44;;;;;;;39.05;35.00;;;4.50;81.60;;;;;;5111885;28;20023;-69
2022/01/09 16:34:10;;;;;;;38.50;34.67;;;4.50;81.80;;;;;;5111402;28;20141;-70
2022/01/09 16:36:37;;;;;;;33.90;30.90;;;4.50;82.00;;;;;;5113615;28;20019;-71
2022/01/09 16:39:04;;;;;;;34.05;30.73;;;4.50;82.00;;;;;;5111754;28;20035;-71
2022/01/09 16:41:30;;;;;;;33.97;30.35;;;4.60;81.90;;;;;;5109768;28;20063;-71
2022/01/09 16:43:56;;;;;;;33.53;30.08;;;4.60;81.90;;;;;;5106698;28;20096;-71
2022/01/09 16:46:22;;;;;;;52.85;43.60;;;4.60;81.80;;;;;;5107455;28;20136;-71
2022/01/09 16:48:48;;;;;;;64.82;54.63;;;4.70;81.70;;;;;;5112922;28;20077;-72
2022/01/09 16:51:14;;;;;;;86.10;64.72;;;4.70;81.70;;;;;;5113545;28;20474;-72
2022/01/09 16:53:42;;;;;;;98.45;72.28;;;4.70;81.70;;;;;;5113276;28;20035;-72
2022/01/09 16:56:09;;;;;;;119.07;76.00;;;4.70;81.70;;;;;;5114420;28;20458;-74
2022/01/09 16:58:35;;;;;;;100.50;69.40;;;4.70;81.70;;;;;;5098271;28;20425;-72
2022/01/09 17:01:02;;;;;;;78.18;57.22;;;4.70;81.60;;;;;;5101537;28;20024;-71
2022/01/09 17:03:33;;;;;;;65.90;53.17;;;4.80;81.70;;;;;;5102796;28;20032;-70
2022/01/09 17:06:04;;;;;;;47.22;42.20;;;4.80;81.60;;;;;;5098283;28;20031;-71
2022/01/09 17:08:35;;;;;;;45.35;33.65;;;4.80;81.50;;;;;;5100950;28;20030;-71
2022/01/09 17:11:02;;;;;;;39.85;35.80;;;4.70;81.40;;;;;;5094796;28;20118;-73
2022/01/09 17:13:28;;;;;;;54.15;40.30;;;4.70;81.40;;;;;;5101631;28;20454;-72
2022/01/09 17:15:54;;;;;;;47.92;33.75;;;4.60;81.30;;;;;;5101497;28;20095;-72
2022/01/09 17:18:20;;;;;;;37.25;31.58;;;4.50;81.70;;;;;;5103468;28;20088;-71
2022/01/09 17:20:46;;;;;;;39.45;31.77;;;4.40;81.50;;;;;;5101680;28;20103;-72
2022/01/09 17:23:12;;;;;;;37.33;33.55;;;4.40;81.70;;;;;;5083204;28;20805;-71
2022/01/09 17:25:38;;;;;;;40.33;34.60;;;4.40;81.80;;;;;;5097619;28;20031;-72
2022/01/09 17:28:04;;;;;;;33.60;29.95;;;4.50;81.90;;;;;;5101237;28;20035;-71
2022/01/09 17:30:29;;;;;;;31.98;28.63;;;4.50;81.80;;;;;;5091221;28;20385;-72
2022/01/09 17:32:55;;;;;;;35.55;31.67;;;4.60;81.70;;;;;;5091087;28;20073;-71
2022/01/09 17:35:21;;;;;;;40.25;32.50;;;4.60;81.60;;;;;;5097020;28;20028;-70
2022/01/09 17:37:47;;;;;;;36.33;30.13;;;4.70;81.50;;;;;;5110234;28;20092;-72
2022/01/09 17:40:13;;;;;;;70.78;55.13;;;4.70;81.50;;;;;;5101820;28;20020;-71
2022/01/09 17:42:40;;;;;;;71.40;59.85;;;4.70;81.40;;;;;;5088785;28;20103;-72
2022/01/09 17:45:07;;;;;;;49.70;44.40;;;4.70;81.40;;;;;;5091980;28;20020;-71
2022/01/09 17:47:33;;;;;;;43.75;39.25;;;4.70;81.40;;;;;;5091932;28;20669;-72
2022/01/09 17:49:59;;;;;;;37.03;33.70;;;4.80;81.40;;;;;;5100503;28;20079;-71
2022/01/09 17:52:24;;;;;;;39.63;31.55;;;4.80;81.40;;;;;;5104431;28;20382;-70
2022/01/09 17:54:50;;;;;;;37.20;30.25;;;4.80;81.30;;;;;;5113880;28;20028;-69
2022/01/09 17:57:16;;;;;;;32.40;29.00;;;4.90;81.30;;;;;;5112661;28;20031;-71
2022/01/09 17:59:44;;;;;;;42.55;35.53;;;4.90;81.30;;;;;;5114120;28;20045;-71
2022/01/09 18:02:11;;;;;;;41.05;33.78;;;4.90;81.20;;;;;;5112702;28;20119;-69
2022/01/09 18:04:37;;;;;;;38.33;33.58;;;4.90;81.10;;;;;;5112745;28;20028;-69
2022/01/09 18:07:02;;;;;;;37.15;32.88;;;4.90;81.10;;;;;;5111883;28;20118;-70
2022/01/09 18:09:28;;;;;;;39.20;32.55;;;4.90;81.00;;;;;;5111699;28;20039;-71
2022/01/09 18:11:54;;;;;;;33.88;30.17;;;4.90;81.00;;;;;;5112081;28;20424;-70
2022/01/09 18:14:20;;;;;;;30.98;27.80;;;4.80;80.90;;;;;;5112409;28;20027;-70
2022/01/09 18:16:46;;;;;;;32.13;26.70;;;4.80;81.00;;;;;;5112507;28;20515;-71
2022/01/09 18:19:13;;;;;;;40.45;34.92;;;4.70;80.90;;;;;;5112139;28;20051;-70
2022/01/09 18:21:39;;;;;;;34.95;29.65;;;4.60;81.00;;;;;;5110925;28;20074;-70
2022/01/09 18:24:10;;;;;;;43.28;38.47;;;4.60;81.20;;;;;;5111521;28;20023;-71
